Wetterdaten: Sonntag, 04.10.2015
Datum Zeit Auen-Temp. Temp gefhlt Luftfeuchte Luftdruck Regen Wind Richtung Richtung Taupunkt Windben
04.10.2015 00:00 7,1 C 7,0 C 89 % 1015,6 hPa 0,0 mm 0,5 km/h (0 Bft) S 180 5,4 C 0,0 km/h (0 Bft)
04.10.2015 00:05 7,3 C 7,1 C 89 % 1015,6 hPa 0,0 mm 0,3 km/h (0 Bft) SO 135 5,6 C 0,0 km/h (0 Bft)
04.10.2015 00:10 6,8 C 6,8 C 89 % 1015,6 hPa 0,0 mm 0,0 km/h (0 Bft) W-SW 247 5,1 C 0,0 km/h (0 Bft)
04.10.2015 00:15 6,6 C 6,6 C 89 % 1015,6 hPa 0,0 mm 0,0 km/h (0 Bft) S-SO 157 4,9 C 0,0 km/h (0 Bft)
04.10.2015 00:20 6,5 C 6,5 C 89 % 1015,6 hPa 0,0 mm 0,0 km/h (0 Bft) S 180 4,8 C 0,0 km/h (0 Bft)
04.10.2015 00:25 7,0 C 6,8 C 89 % 1015,6 hPa 0,0 mm 0,3 km/h (0 Bft) SO 135 5,3 C 0,0 km/h (0 Bft)
04.10.2015 00:30 7,2 C 7,1 C 90 % 1015,6 hPa 0,0 mm 0,3 km/h (0 Bft) SO 135 5,7 C 0,0 km/h (0 Bft)
04.10.2015 00:35 6,8 C 6,8 C 90 % 1015,6 hPa 0,0 mm 0,0 km/h (0 Bft) SO 135 5,3 C 0,0 km/h (0 Bft)
04.10.2015 00:40 6,8 C 6,7 C 90 % 1015,6 hPa 0,0 mm 0,0 km/h (0 Bft) W-SW 247 5,3 C 0,0 km/h (0 Bft)
04.10.2015 00:45 7,2 C 7,2 C 85 % 1015,6 hPa 0,0 mm 0,3 km/h (0 Bft) W-SW 247 4,9 C 0,0 km/h (0 Bft)
04.10.2015 00:50 7,1 C 7,0 C 90 % 1015,6 hPa 0,0 mm 0,8 km/h (0 Bft) S 180 5,6 C 4,7 km/h (1 Bft)
04.10.2015 00:55 7,1 C 7,0 C 90 % 1015,4 hPa 0,0 mm 0,5 km/h (0 Bft) S-SW 202 5,6 C 0,0 km/h (0 Bft)
04.10.2015 01:00 6,8 C 6,8 C 90 % 1015,4 hPa 0,0 mm 0,3 km/h (0 Bft) NO 45 5,3 C 5,7 km/h (1 Bft)
04.10.2015 01:05 6,7 C 6,6 C 90 % 1015,4 hPa 0,0 mm 0,3 km/h (0 Bft) O-NO 67 5,2 C 0,0 km/h (0 Bft)
04.10.2015 01:10 7,2 C 7,1 C 85 % 1015,4 hPa 0,0 mm 0,5 km/h (0 Bft) S 180 4,9 C 3,1 km/h (1 Bft)
04.10.2015 01:15 7,2 C 7,1 C 90 % 1015,5 hPa 0,0 mm 0,8 km/h (0 Bft) S 180 5,7 C 0,0 km/h (0 Bft)
04.10.2015 01:20 6,9 C 6,8 C 90 % 1015,5 hPa 0,0 mm 0,5 km/h (0 Bft) SO 135 5,4 C 0,0 km/h (0 Bft)
04.10.2015 01:25 7,1 C 7,1 C 85 % 1015,5 hPa 0,0 mm 0,0 km/h (0 Bft) S 180 4,8 C 0,0 km/h (0 Bft)
04.10.2015 01:30 7,3 C 7,3 C 90 % 1015,5 hPa 0,0 mm 0,3 km/h (0 Bft) SO 135 5,8 C 0,0 km/h (0 Bft)
04.10.2015 01:35 7,1 C 7,2 C 90 % 1015,5 hPa 0,0 mm 0,3 km/h (0 Bft) W-NW 292 5,6 C 0,0 km/h (0 Bft)
04.10.2015 01:40 7,7 C 7,8 C 86 % 1015,5 hPa 0,0 mm 0,3 km/h (0 Bft) S 180 5,5 C 2,8 km/h (1 Bft)
04.10.2015 01:45 8,3 C 8,3 C 86 % 1015,5 hPa 0,0 mm 1,0 km/h (0 Bft) S-SO 157 6,1 C 0,0 km/h (0 Bft)
04.10.2015 01:50 7,7 C 7,7 C 90 % 1015,5 hPa 0,0 mm 0,8 km/h (0 Bft) SO 135 6,2 C 0,0 km/h (0 Bft)
04.10.2015 01:55 7,5 C 7,5 C 89 % 1015,4 hPa 0,0 mm 0,0 km/h (0 Bft) SO 135 5,8 C 0,0 km/h (0 Bft)
04.10.2015 02:00 7,5 C 7,4 C 89 % 1015,4 hPa 0,0 mm 0,0 km/h (0 Bft) SO 135 5,8 C 0,0 km/h (0 Bft)
04.10.2015 02:05 7,5 C 7,4 C 89 % 1015,4 hPa 0,0 mm 0,0 km/h (0 Bft) S-SW 202 5,8 C 0,0 km/h (0 Bft)
04.10.2015 02:10 7,6 C 7,5 C 89 % 1015,4 hPa 0,0 mm 0,0 km/h (0 Bft) S-SW 202 5,9 C 0,0 km/h (0 Bft)
04.10.2015 02:15 7,6 C 7,5 C 89 % 1015,1 hPa 0,0 mm 0,0 km/h (0 Bft) S 180 5,9 C 0,0 km/h (0 Bft)
04.10.2015 02:19 7,7 C 7,6 C 89 % 1015,1 hPa 0,0 mm 0,0 km/h (0 Bft) SW 225 6,0 C 0,0 km/h (0 Bft)
04.10.2015 02:25 7,8 C 7,6 C 89 % 1015,1 hPa 0,0 mm 0,0 km/h (0 Bft) S 180 6,1 C 0,0 km/h (0 Bft)
04.10.2015 02:30 8,6 C 8,5 C 86 % 1015,1 hPa 0,0 mm 1,8 km/h (1 Bft) SW 225 6,4 C 7,0 km/h (2 Bft)
04.10.2015 02:35 9,0 C 8,8 C 85 % 1015,2 hPa 0,0 mm 2,8 km/h (1 Bft) S-SO 157 6,6 C 0,0 km/h (0 Bft)
04.10.2015 02:40 8,6 C 8,4 C 88 % 1015,2 hPa 0,0 mm 1,6 km/h (1 Bft) N-NO 22 6,7 C 0,0 km/h (0 Bft)
04.10.2015 02:45 8,4 C 8,2 C 88 % 1015,2 hPa 0,0 mm 0,0 km/h (0 Bft) NO 45 6,5 C 0,0 km/h (0 Bft)
04.10.2015 02:50 8,6 C 8,3 C 88 % 1015,2 hPa 0,0 mm 0,0 km/h (0 Bft) NO 45 6,7 C 0,0 km/h (0 Bft)
04.10.2015 02:55 8,6 C 8,4 C 88 % 1015,2 hPa 0,0 mm 0,0 km/h (0 Bft) NO 45 6,7 C 0,0 km/h (0 Bft)
04.10.2015 03:00 8,4 C 8,3 C 88 % 1015,2 hPa 0,0 mm 0,0 km/h (0 Bft) N 360 6,5 C 0,0 km/h (0 Bft)
04.10.2015 03:05 8,3 C 8,2 C 87 % 1015,2 hPa 0,0 mm 0,0 km/h (0 Bft) NW 315 6,3 C 0,0 km/h (0 Bft)
04.10.2015 03:10 8,3 C 8,2 C 87 % 1015,2 hPa 0,0 mm 0,0 km/h (0 Bft) NW 315 6,3 C 0,0 km/h (0 Bft)
04.10.2015 03:15 8,4 C 8,2 C 88 % 1015,1 hPa 0,0 mm 0,0 km/h (0 Bft) NW 315 6,5 C 0,0 km/h (0 Bft)
04.10.2015 03:20 8,4 C 8,3 C 87 % 1015,1 hPa 0,0 mm 0,3 km/h (0 Bft) W-SW 247 6,4 C 3,9 km/h (1 Bft)
04.10.2015 03:25 8,4 C 8,3 C 87 % 1015,1 hPa 0,0 mm 0,3 km/h (0 Bft) W-SW 247 6,4 C 0,0 km/h (0 Bft)
04.10.2015 03:30 8,2 C 8,1 C 87 % 1015,1 hPa 0,0 mm 0,3 km/h (0 Bft) W-SW 247 6,2 C 0,0 km/h (0 Bft)
04.10.2015 03:35 8,2 C 8,1 C 87 % 1015,3 hPa 0,0 mm 0,0 km/h (0 Bft) W-SW 247 6,2 C 0,0 km/h (0 Bft)
04.10.2015 03:40 8,3 C 8,2 C 87 % 1015,3 hPa 0,0 mm 0,0 km/h (0 Bft) W-SW 247 6,3 C 0,0 km/h (0 Bft)
04.10.2015 03:45 8,3 C 8,3 C 84 % 1015,3 hPa 0,0 mm 0,0 km/h (0 Bft) W-SW 247 5,8 C 0,0 km/h (0 Bft)
04.10.2015 03:50 9,0 C 9,0 C 84 % 1015,3 hPa 0,0 mm 1,6 km/h (1 Bft) S 180 6,4 C 4,4 km/h (1 Bft)
04.10.2015 03:55 9,3 C 9,2 C 84 % 1014,8 hPa 0,0 mm 2,1 km/h (1 Bft) S-SO 157 6,7 C 0,0 km/h (0 Bft)
04.10.2015 04:00 9,3 C 9,2 C 87 % 1014,8 hPa 0,0 mm 1,6 km/h (1 Bft) N-NO 22 7,2 C 2,6 km/h (1 Bft)
04.10.2015 04:05 9,0 C 9,0 C 86 % 1014,8 hPa 0,0 mm 0,3 km/h (0 Bft) N-NO 22 6,8 C 0,0 km/h (0 Bft)
04.10.2015 04:10 8,9 C 8,8 C 86 % 1014,8 hPa 0,0 mm 0,0 km/h (0 Bft) N-NO 22 6,7 C 0,0 km/h (0 Bft)
04.10.2015 04:15 8,9 C 8,8 C 86 % 1014,7 hPa 0,0 mm 0,0 km/h (0 Bft) N-NO 22 6,7 C 0,0 km/h (0 Bft)
04.10.2015 04:20 9,1 C 9,1 C 83 % 1014,7 hPa 0,0 mm 1,3 km/h (1 Bft) O-NO 67 6,4 C 0,0 km/h (0 Bft)
04.10.2015 04:25 9,2 C 9,2 C 86 % 1014,7 hPa 0,0 mm 1,3 km/h (1 Bft) NO 45 7,0 C 0,0 km/h (0 Bft)
04.10.2015 04:30 9,2 C 9,2 C 86 % 1014,7 hPa 0,0 mm 0,0 km/h (0 Bft) W 270 7,0 C 0,0 km/h (0 Bft)
04.10.2015 04:35 9,3 C 9,3 C 86 % 1014,9 hPa 0,0 mm 0,0 km/h (0 Bft) N-NW 337 7,1 C 0,0 km/h (0 Bft)
04.10.2015 04:40 9,3 C 9,5 C 83 % 1014,9 hPa 0,0 mm 0,0 km/h (0 Bft) O-NO 67 6,6 C 0,0 km/h (0 Bft)
04.10.2015 04:45 9,3 C 9,5 C 83 % 1014,9 hPa 0,0 mm 0,0 km/h (0 Bft) O-NO 67 6,6 C 0,0 km/h (0 Bft)
04.10.2015 04:50 9,6 C 10,1 C 83 % 1014,9 hPa 0,0 mm 0,0 km/h (0 Bft) O 90 6,9 C 0,0 km/h (0 Bft)
04.10.2015 04:55 9,8 C 10,4 C 83 % 1014,8 hPa 0,0 mm 0,8 km/h (0 Bft) N-NW 337 7,1 C 5,2 km/h (1 Bft)
04.10.2015 05:00 10,0 C 10,4 C 84 % 1014,8 hPa 0,0 mm 0,8 km/h (0 Bft) NW 315 7,4 C 8,0 km/h (2 Bft)
04.10.2015 05:05 9,9 C 10,3 C 84 % 1014,8 hPa 0,0 mm 0,5 km/h (0 Bft) W-NW 292 7,3 C 0,0 km/h (0 Bft)
04.10.2015 05:10 10,0 C 10,1 C 83 % 1014,8 hPa 0,0 mm 0,0 km/h (0 Bft) NW 315 7,2 C 0,0 km/h (0 Bft)
04.10.2015 05:15 9,9 C 10,1 C 83 % 1015,1 hPa 0,0 mm 0,0 km/h (0 Bft) W-NW 292 7,2 C 0,0 km/h (0 Bft)
04.10.2015 05:20 9,6 C 10,0 C 83 % 1015,1 hPa 0,0 mm 0,0 km/h (0 Bft) W-NW 292 6,9 C 0,0 km/h (0 Bft)
04.10.2015 05:25 9,6 C 9,8 C 83 % 1015,1 hPa 0,0 mm 0,0 km/h (0 Bft) NW 315 6,9 C 0,0 km/h (0 Bft)
04.10.2015 05:30 9,8 C 9,7 C 83 % 1015,1 hPa 0,0 mm 0,5 km/h (0 Bft) SO 135 7,1 C 3,4 km/h (1 Bft)
04.10.2015 05:35 9,8 C 9,7 C 82 % 1015,1 hPa 0,0 mm 0,8 km/h (0 Bft) SO 135 6,9 C 0,0 km/h (0 Bft)
04.10.2015 05:40 9,9 C 10,1 C 80 % 1015,1 hPa 0,0 mm 1,6 km/h (1 Bft) SW 225 6,6 C 10,4 km/h (2 Bft)
04.10.2015 05:45 10,3 C 10,4 C 80 % 1015,1 hPa 0,0 mm 2,3 km/h (1 Bft) NW 315 7,0 C 3,6 km/h (1 Bft)
04.10.2015 05:50 10,0 C 10,4 C 80 % 1015,1 hPa 0,0 mm 2,8 km/h (1 Bft) S 180 6,7 C 8,8 km/h (2 Bft)
04.10.2015 05:55 10,9 C 10,9 C 79 % 1015,3 hPa 0,0 mm 3,4 km/h (1 Bft) SW 225 7,4 C 8,3 km/h (2 Bft)
04.10.2015 06:00 11,4 C 11,4 C 78 % 1015,3 hPa 0,0 mm 6,2 km/h (2 Bft) SW 225 7,7 C 11,4 km/h (2 Bft)
04.10.2015 06:05 11,7 C 11,7 C 77 % 1015,3 hPa 0,0 mm 6,7 km/h (2 Bft) SW 225 7,8 C 5,2 km/h (1 Bft)
04.10.2015 06:10 11,9 C 12,0 C 75 % 1015,3 hPa 0,0 mm 6,5 km/h (2 Bft) S 180 7,6 C 16,3 km/h (3 Bft)
04.10.2015 06:15 11,9 C 12,2 C 74 % 1015,4 hPa 0,0 mm 4,7 km/h (1 Bft) S 180 7,4 C 6,2 km/h (2 Bft)
04.10.2015 06:20 12,0 C 12,2 C 74 % 1015,4 hPa 0,0 mm 2,6 km/h (1 Bft) S-SO 157 7,5 C 5,7 km/h (1 Bft)
04.10.2015 06:25 12,2 C 12,3 C 73 % 1015,4 hPa 0,0 mm 3,4 km/h (1 Bft) SW 225 7,5 C 7,3 km/h (2 Bft)
04.10.2015 06:30 12,0 C 12,3 C 72 % 1015,4 hPa 0,0 mm 3,4 km/h (1 Bft) SW 225 7,1 C 17,3 km/h (3 Bft)
04.10.2015 06:35 11,9 C 12,2 C 72 % 1015,9 hPa 0,0 mm 2,6 km/h (1 Bft) W-NW 292 7,0 C 16,8 km/h (3 Bft)
04.10.2015 06:40 11,9 C 11,9 C 73 % 1015,9 hPa 0,0 mm 2,8 km/h (1 Bft) N-NW 337 7,2 C 2,6 km/h (1 Bft)
04.10.2015 06:45 11,8 C 11,8 C 73 % 1015,9 hPa 0,0 mm 3,4 km/h (1 Bft) SW 225 7,1 C 8,3 km/h (2 Bft)
04.10.2015 06:50 11,7 C 11,6 C 73 % 1015,9 hPa 0,0 mm 3,6 km/h (1 Bft) W-NW 292 7,0 C 4,4 km/h (1 Bft)
04.10.2015 06:55 11,7 C 11,6 C 73 % 1016,1 hPa 0,0 mm 4,4 km/h (1 Bft) S 180 7,0 C 0,0 km/h (0 Bft)
04.10.2015 07:00 11,5 C 11,4 C 74 % 1016,1 hPa 0,0 mm 3,9 km/h (1 Bft) SW 225 7,0 C 9,8 km/h (2 Bft)
04.10.2015 07:05 11,4 C 11,3 C 75 % 1016,1 hPa 0,0 mm 3,6 km/h (1 Bft) N-NW 337 7,1 C 4,4 km/h (1 Bft)
04.10.2015 07:10 11,2 C 11,1 C 75 % 1016,1 hPa 0,0 mm 2,8 km/h (1 Bft) NW 315 6,9 C 19,7 km/h (3 Bft)
04.10.2015 07:15 11,3 C 11,1 C 76 % 1016,1 hPa 0,0 mm 2,6 km/h (1 Bft) SW 225 7,2 C 4,4 km/h (1 Bft)
04.10.2015 07:20 11,4 C 11,3 C 77 % 1016,1 hPa 0,0 mm 6,0 km/h (2 Bft) W 270 7,5 C 13,7 km/h (3 Bft)
04.10.2015 07:25 11,4 C 11,3 C 77 % 1016,1 hPa 0,0 mm 6,7 km/h (2 Bft) S 180 7,5 C 3,4 km/h (1 Bft)
04.10.2015 07:30 11,4 C 11,3 C 77 % 1016,1 hPa 0,0 mm 5,4 km/h (1 Bft) S 180 7,5 C 8,0 km/h (2 Bft)
04.10.2015 07:35 11,4 C 11,3 C 78 % 1016,2 hPa 0,0 mm 5,4 km/h (1 Bft) S-SW 202 7,7 C 8,0 km/h (2 Bft)
04.10.2015 07:40 11,3 C 11,3 C 78 % 1016,2 hPa 0,0 mm 5,2 km/h (1 Bft) S 180 7,6 C 7,8 km/h (2 Bft)
04.10.2015 07:45 11,3 C 11,2 C 78 % 1016,2 hPa 0,0 mm 4,1 km/h (1 Bft) S 180 7,6 C 5,2 km/h (1 Bft)
04.10.2015 07:50 11,2 C 11,2 C 78 % 1016,2 hPa 0,0 mm 2,8 km/h (1 Bft) N-NW 337 7,5 C 0,0 km/h (0 Bft)
04.10.2015 07:55 11,2 C 11,1 C 78 % 1016,6 hPa 0,0 mm 2,8 km/h (1 Bft) S 180 7,5 C 4,1 km/h (1 Bft)
04.10.2015 08:00 11,3 C 11,2 C 79 % 1016,6 hPa 0,0 mm 5,2 km/h (1 Bft) W 270 7,8 C 15,0 km/h (3 Bft)
04.10.2015 08:05 11,4 C 11,3 C 79 % 1016,6 hPa 0,0 mm 7,0 km/h (2 Bft) W-NW 292 7,9 C 22,8 km/h (4 Bft)
04.10.2015 08:10 11,4 C 11,2 C 80 % 1016,6 hPa 0,0 mm 10,4 km/h (2 Bft) N-NO 22 8,1 C 24,1 km/h (4 Bft)
04.10.2015 08:15 11,4 C 11,2 C 81 % 1016,9 hPa 0,0 mm 11,1 km/h (2 Bft) W-NW 292 8,3 C 26,9 km/h (4 Bft)
04.10.2015 08:20 11,4 C 11,2 C 81 % 1016,9 hPa 0,0 mm 10,9 km/h (2 Bft) W-NW 292 8,3 C 16,8 km/h (3 Bft)
04.10.2015 08:25 11,4 C 11,2 C 81 % 1016,9 hPa 0,0 mm 10,9 km/h (2 Bft) W-NW 292 8,3 C 16,8 km/h (3 Bft)
04.10.2015 08:30 11,4 C 11,2 C 81 % 1016,9 hPa 0,0 mm 8,8 km/h (2 Bft) S 180 8,3 C 6,7 km/h (2 Bft)
04.10.2015 08:35 11,3 C 11,1 C 82 % 1017,1 hPa 0,0 mm 4,4 km/h (1 Bft) W-SW 247 8,3 C 5,7 km/h (1 Bft)
04.10.2015 08:40 11,3 C 11,1 C 82 % 1017,1 hPa 0,0 mm 4,4 km/h (1 Bft) W-SW 247 8,3 C 5,7 km/h (1 Bft)
04.10.2015 08:45 11,3 C 11,2 C 82 % 1017,1 hPa 0,0 mm 4,4 km/h (1 Bft) W-NW 292 8,3 C 8,3 km/h (2 Bft)
04.10.2015 08:50 11,3 C 11,2 C 82 % 1017,1 hPa 0,0 mm 4,9 km/h (1 Bft) SW 225 8,3 C 4,4 km/h (1 Bft)
04.10.2015 08:55 11,3 C 11,3 C 82 % 1017,5 hPa 0,0 mm 6,7 km/h (2 Bft) S-SO 157 8,3 C 8,5 km/h (2 Bft)
04.10.2015 09:00 11,3 C 11,4 C 80 % 1017,5 hPa 0,0 mm 7,8 km/h (2 Bft) W-SW 247 8,0 C 5,4 km/h (1 Bft)
04.10.2015 09:05 11,4 C 11,6 C 80 % 1017,5 hPa 0,0 mm 7,5 km/h (2 Bft) SW 225 8,1 C 6,0 km/h (2 Bft)
04.10.2015 09:10 11,4 C 11,8 C 80 % 1017,5 hPa 0,0 mm 7,8 km/h (2 Bft) O-SO 112 8,1 C 28,5 km/h (4 Bft)
04.10.2015 09:15 11,5 C 11,8 C 79 % 1017,8 hPa 0,0 mm 9,1 km/h (2 Bft) W-SW 247 8,0 C 12,9 km/h (3 Bft)
04.10.2015 09:20 11,5 C 11,8 C 79 % 1017,8 hPa 0,0 mm 11,9 km/h (2 Bft) W-SW 247 8,0 C 17,3 km/h (3 Bft)
04.10.2015 09:25 11,6 C 12,1 C 79 % 1017,8 hPa 0,0 mm 10,6 km/h (2 Bft) N-NW 337 8,1 C 9,6 km/h (2 Bft)
04.10.2015 09:30 11,6 C 12,4 C 79 % 1017,8 hPa 0,0 mm 9,3 km/h (2 Bft) NW 315 8,1 C 14,5 km/h (3 Bft)
04.10.2015 09:35 11,6 C 12,2 C 79 % 1018,1 hPa 0,0 mm 10,9 km/h (2 Bft) W-NW 292 8,1 C 29,5 km/h (5 Bft)
04.10.2015 09:40 11,5 C 11,8 C 78 % 1018,1 hPa 0,0 mm 11,7 km/h (2 Bft) SW 225 7,8 C 36,0 km/h (5 Bft)
04.10.2015 09:45 11,3 C 11,6 C 78 % 1018,1 hPa 0,0 mm 11,9 km/h (2 Bft) SW 225 7,6 C 15,5 km/h (3 Bft)
04.10.2015 09:50 11,1 C 11,3 C 77 % 1018,1 hPa 0,0 mm 13,5 km/h (3 Bft) S-SO 157 7,2 C 14,5 km/h (3 Bft)
04.10.2015 09:55 11,0 C 11,0 C 76 % 1018,6 hPa 0,0 mm 13,2 km/h (3 Bft) NW 315 6,9 C 15,3 km/h (3 Bft)
04.10.2015 10:00 10,8 C 10,8 C 76 % 1018,6 hPa 0,0 mm 14,8 km/h (3 Bft) W-NW 292 6,7 C 22,5 km/h (4 Bft)
04.10.2015 10:05 10,7 C 10,5 C 76 % 1018,6 hPa 0,0 mm 15,3 km/h (3 Bft) W-NW 292 6,6 C 15,3 km/h (3 Bft)
04.10.2015 10:10 10,2 C 10,0 C 75 % 1018,6 hPa 0,0 mm 12,4 km/h (3 Bft) SW 225 6,0 C 12,7 km/h (3 Bft)
04.10.2015 10:15 9,9 C 9,4 C 75 % 1019,2 hPa 0,0 mm 11,4 km/h (2 Bft) W-NW 292 5,7 C 11,9 km/h (2 Bft)
04.10.2015 10:20 9,3 C 8,9 C 75 % 1019,2 hPa 0,0 mm 13,5 km/h (3 Bft) S 180 5,1 C 39,9 km/h (6 Bft)
04.10.2015 10:25 9,1 C 8,5 C 76 % 1019,2 hPa 0,0 mm 15,0 km/h (3 Bft) O-SO 112 5,1 C 13,5 km/h (3 Bft)
04.10.2015 10:30 8,8 C 8,2 C 78 % 1019,2 hPa 0,0 mm 13,5 km/h (3 Bft) W-NW 292 5,2 C 32,6 km/h (5 Bft)
04.10.2015 10:35 8,8 C 8,1 C 79 % 1019,4 hPa 0,7 mm 10,6 km/h (2 Bft) S 180 5,4 C 6,0 km/h (2 Bft)
04.10.2015 10:40 9,1 C 8,3 C 79 % 1019,4 hPa 0,0 mm 10,6 km/h (2 Bft) W-NW 292 5,7 C 17,6 km/h (3 Bft)
04.10.2015 10:45 9,2 C 8,7 C 78 % 1019,4 hPa 0,0 mm 10,9 km/h (2 Bft) W 270 5,6 C 13,7 km/h (3 Bft)
04.10.2015 10:50 9,5 C 9,1 C 78 % 1019,4 hPa 0,0 mm 10,4 km/h (2 Bft) S-SW 202 5,9 C 18,9 km/h (3 Bft)
04.10.2015 10:55 9,5 C 9,2 C 77 % 1019,3 hPa 0,0 mm 12,7 km/h (3 Bft) S 180 5,7 C 15,5 km/h (3 Bft)
04.10.2015 11:00 9,6 C 9,3 C 76 % 1019,3 hPa 0,0 mm 12,4 km/h (3 Bft) N-NO 22 5,6 C 12,2 km/h (2 Bft)
04.10.2015 11:05 9,7 C 9,4 C 76 % 1019,3 hPa 0,0 mm 10,6 km/h (2 Bft) W-SW 247 5,7 C 20,7 km/h (4 Bft)
04.10.2015 11:10 9,7 C 9,3 C 75 % 1019,3 hPa 0,0 mm 10,6 km/h (2 Bft) SW 225 5,5 C 35,2 km/h (5 Bft)
04.10.2015 11:15 9,7 C 9,3 C 75 % 1019,4 hPa 0,0 mm 10,9 km/h (2 Bft) W 270 5,5 C 11,9 km/h (2 Bft)
04.10.2015 11:20 9,8 C 9,6 C 74 % 1019,4 hPa 0,0 mm 11,4 km/h (2 Bft) W 270 5,4 C 15,0 km/h (3 Bft)
04.10.2015 11:25 9,9 C 9,8 C 73 % 1019,4 hPa 0,0 mm 10,6 km/h (2 Bft) NW 315 5,3 C 12,7 km/h (3 Bft)
04.10.2015 11:30 9,8 C 9,8 C 72 % 1019,4 hPa 0,0 mm 11,1 km/h (2 Bft) SW 225 5,0 C 16,1 km/h (3 Bft)
04.10.2015 11:35 10,0 C 10,1 C 71 % 1019,6 hPa 0,0 mm 11,1 km/h (2 Bft) W-SW 247 5,0 C 18,1 km/h (3 Bft)
04.10.2015 11:40 10,1 C 10,7 C 70 % 1019,6 hPa 0,0 mm 9,6 km/h (2 Bft) NW 315 4,9 C 4,4 km/h (1 Bft)
04.10.2015 11:45 10,1 C 10,7 C 70 % 1019,6 hPa 0,0 mm 9,8 km/h (2 Bft) W-NW 292 4,9 C 15,0 km/h (3 Bft)
04.10.2015 11:50 10,0 C 10,2 C 69 % 1019,6 hPa 0,0 mm 10,9 km/h (2 Bft) NW 315 4,6 C 40,9 km/h (6 Bft)
04.10.2015 11:55 10,0 C 10,2 C 69 % 1019,5 hPa 0,0 mm 10,1 km/h (2 Bft) S-SO 157 4,6 C 10,4 km/h (2 Bft)
04.10.2015 12:00 9,9 C 10,5 C 69 % 1019,5 hPa 0,0 mm 6,2 km/h (2 Bft) W 270 4,5 C 3,1 km/h (1 Bft)
04.10.2015 12:05 9,9 C 10,4 C 70 % 1019,5 hPa 0,0 mm 5,4 km/h (1 Bft) SW 225 4,7 C 4,1 km/h (1 Bft)
04.10.2015 12:10 9,7 C 10,2 C 70 % 1019,5 hPa 0,0 mm 6,5 km/h (2 Bft) S-SW 202 4,5 C 7,8 km/h (2 Bft)
04.10.2015 12:15 9,5 C 9,8 C 70 % 1019,4 hPa 0,0 mm 7,3 km/h (2 Bft) S-SO 157 4,3 C 11,9 km/h (2 Bft)
04.10.2015 12:20 9,2 C 9,1 C 71 % 1019,4 hPa 0,0 mm 6,2 km/h (2 Bft) S 180 4,2 C 8,0 km/h (2 Bft)
04.10.2015 12:25 9,0 C 8,7 C 72 % 1019,4 hPa 0,0 mm 7,5 km/h (2 Bft) W 270 4,2 C 8,3 km/h (2 Bft)
04.10.2015 12:30 8,9 C 8,5 C 74 % 1019,4 hPa 0,0 mm 7,0 km/h (2 Bft) SW 225 4,5 C 15,0 km/h (3 Bft)
04.10.2015 12:35 8,7 C 8,4 C 75 % 1019,7 hPa 0,0 mm 6,5 km/h (2 Bft) W-SW 247 4,5 C 10,1 km/h (2 Bft)
04.10.2015 12:40 8,4 C 8,1 C 76 % 1019,7 hPa 0,7 mm 6,2 km/h (2 Bft) S 180 4,4 C 9,3 km/h (2 Bft)
04.10.2015 12:45 8,3 C 8,0 C 77 % 1019,7 hPa 0,0 mm 6,0 km/h (2 Bft) N-NW 337 4,5 C 10,9 km/h (2 Bft)
04.10.2015 12:50 8,1 C 7,8 C 78 % 1019,7 hPa 0,0 mm 5,2 km/h (1 Bft) S 180 4,5 C 3,9 km/h (1 Bft)
04.10.2015 12:55 7,9 C 7,7 C 78 % 1019,9 hPa 0,0 mm 5,2 km/h (1 Bft) SW 225 4,3 C 13,7 km/h (3 Bft)
04.10.2015 13:00 7,7 C 7,5 C 79 % 1019,9 hPa 0,7 mm 4,1 km/h (1 Bft) S-SW 202 4,3 C 0,0 km/h (0 Bft)
04.10.2015 13:05 7,6 C 7,4 C 79 % 1019,9 hPa 0,0 mm 4,9 km/h (1 Bft) W-SW 247 4,2 C 5,2 km/h (1 Bft)
04.10.2015 13:10 7,6 C 7,3 C 80 % 1019,9 hPa 0,0 mm 5,4 km/h (1 Bft) W 270 4,4 C 15,0 km/h (3 Bft)
04.10.2015 13:15 7,6 C 7,3 C 80 % 1019,9 hPa 0,7 mm 6,2 km/h (2 Bft) S-SW 202 4,4 C 10,9 km/h (2 Bft)
04.10.2015 13:20 7,7 C 7,2 C 81 % 1019,9 hPa 0,0 mm 7,8 km/h (2 Bft) W-NW 292 4,7 C 9,8 km/h (2 Bft)
04.10.2015 13:25 7,8 C 7,4 C 81 % 1019,9 hPa 0,0 mm 7,3 km/h (2 Bft) SW 225 4,7 C 8,0 km/h (2 Bft)
04.10.2015 13:30 7,9 C 7,5 C 81 % 1019,9 hPa 0,0 mm 7,3 km/h (2 Bft) S 180 4,8 C 15,0 km/h (3 Bft)
04.10.2015 13:35 7,9 C 7,6 C 81 % 1020,2 hPa 0,7 mm 5,2 km/h (1 Bft) SW 225 4,8 C 4,7 km/h (1 Bft)
04.10.2015 13:40 7,8 C 7,6 C 82 % 1020,2 hPa 0,0 mm 2,3 km/h (1 Bft) S-SO 157 4,9 C 0,0 km/h (0 Bft)
04.10.2015 13:45 7,8 C 7,6 C 82 % 1020,2 hPa 0,0 mm 1,3 km/h (1 Bft) SW 225 4,9 C 0,0 km/h (0 Bft)
04.10.2015 13:50 7,7 C 7,6 C 83 % 1020,2 hPa 0,0 mm 0,5 km/h (0 Bft) N 360 5,0 C 0,0 km/h (0 Bft)
04.10.2015 13:55 7,7 C 7,6 C 83 % 1019,6 hPa 0,0 mm 0,5 km/h (0 Bft) NO 45 5,0 C 0,0 km/h (0 Bft)
04.10.2015 14:00 7,6 C 7,5 C 84 % 1019,6 hPa 0,0 mm 0,3 km/h (0 Bft) O-SO 112 5,1 C 0,0 km/h (0 Bft)
04.10.2015 14:05 7,6 C 7,5 C 85 % 1019,6 hPa 0,0 mm 0,0 km/h (0 Bft) O-SO 112 5,2 C 0,0 km/h (0 Bft)
04.10.2015 14:10 7,6 C 7,6 C 81 % 1019,6 hPa 0,0 mm 0,0 km/h (0 Bft) SW 225 4,6 C 0,0 km/h (0 Bft)
04.10.2015 14:15 7,7 C 7,8 C 81 % 1019,2 hPa 0,0 mm 0,0 km/h (0 Bft) W 270 4,7 C 0,0 km/h (0 Bft)
04.10.2015 14:20 8,2 C 8,5 C 82 % 1019,2 hPa 0,0 mm 0,0 km/h (0 Bft) SO 135 5,3 C 0,0 km/h (0 Bft)
04.10.2015 14:21 8,2 C 8,5 C 82 % 1019,2 hPa 0,0 mm 0,0 km/h (0 Bft) SO 135 5,3 C 0,0 km/h (0 Bft)
04.10.2015 14:25 8,2 C 8,5 C 82 % 1019,2 hPa 0,0 mm 0,0 km/h (0 Bft) SO 135 5,3 C 0,0 km/h (0 Bft)
04.10.2015 14:30 8,7 C 9,4 C 83 % 1019,2 hPa 0,0 mm 0,3 km/h (0 Bft) O-NO 67 6,0 C 0,0 km/h (0 Bft)
04.10.2015 14:35 9,2 C 10,3 C 82 % 1019,1 hPa 0,0 mm 0,8 km/h (0 Bft) O 90 6,3 C 0,0 km/h (0 Bft)
04.10.2015 14:40 10,1 C 11,7 C 82 % 1019,1 hPa 0,0 mm 0,8 km/h (0 Bft) N-NO 22 7,2 C 3,1 km/h (1 Bft)
04.10.2015 14:45 10,7 C 12,6 C 82 % 1019,1 hPa 0,0 mm 0,5 km/h (0 Bft) N-NO 22 7,8 C 0,0 km/h (0 Bft)
04.10.2015 14:50 11,3 C 14,1 C 82 % 1019,1 hPa 0,0 mm 1,3 km/h (1 Bft) N-NW 337 8,3 C 3,4 km/h (1 Bft)
04.10.2015 14:55 11,5 C 14,7 C 81 % 1019,0 hPa 0,0 mm 1,6 km/h (1 Bft) O-NO 67 8,4 C 2,6 km/h (1 Bft)
04.10.2015 15:00 11,7 C 15,4 C 81 % 1019,0 hPa 0,0 mm 0,8 km/h (0 Bft) O-SO 112 8,5 C 3,4 km/h (1 Bft)
04.10.2015 15:05 11,6 C 15,8 C 80 % 1019,0 hPa 0,0 mm 0,3 km/h (0 Bft) O-SO 112 8,3 C 0,0 km/h (0 Bft)
04.10.2015 15:10 12,4 C 17,0 C 80 % 1019,0 hPa 0,0 mm 0,8 km/h (0 Bft) NW 315 9,0 C 3,9 km/h (1 Bft)
04.10.2015 15:15 12,9 C 17,6 C 79 % 1019,2 hPa 0,0 mm 1,0 km/h (0 Bft) S 180 9,3 C 4,1 km/h (1 Bft)
04.10.2015 15:20 13,4 C 18,8 C 77 % 1019,2 hPa 0,0 mm 1,3 km/h (1 Bft) W-NW 292 9,5 C 0,0 km/h (0 Bft)
04.10.2015 15:25 13,8 C 19,6 C 75 % 1019,2 hPa 0,0 mm 1,3 km/h (1 Bft) NW 315 9,4 C 0,0 km/h (0 Bft)
04.10.2015 15:30 14,3 C 20,3 C 73 % 1019,2 hPa 0,0 mm 1,3 km/h (1 Bft) N-NO 22 9,5 C 0,0 km/h (0 Bft)
04.10.2015 15:35 14,5 C 20,6 C 72 % 1019,1 hPa 0,0 mm 2,6 km/h (1 Bft) W 270 9,5 C 9,1 km/h (2 Bft)
04.10.2015 15:40 13,4 C 18,4 C 70 % 1019,1 hPa 0,0 mm 1,8 km/h (1 Bft) S-SO 157 8,0 C 0,0 km/h (0 Bft)
04.10.2015 15:45 13,1 C 18,4 C 70 % 1019,1 hPa 0,0 mm 0,3 km/h (0 Bft) SW 225 7,8 C 0,0 km/h (0 Bft)
04.10.2015 15:50 13,1 C 18,4 C 70 % 1019,1 hPa 0,0 mm 0,3 km/h (0 Bft) SW 225 7,8 C 0,0 km/h (0 Bft)
04.10.2015 15:55 12,8 C 18,4 C 72 % 1019,1 hPa 0,0 mm 0,3 km/h (0 Bft) O-NO 67 7,9 C 0,0 km/h (0 Bft)
04.10.2015 16:00 12,4 C 17,6 C 73 % 1019,1 hPa 0,0 mm 2,1 km/h (1 Bft) S 180 7,7 C 3,1 km/h (1 Bft)
04.10.2015 16:05 12,5 C 17,2 C 73 % 1019,1 hPa 0,0 mm 2,8 km/h (1 Bft) S-SO 157 7,8 C 3,6 km/h (1 Bft)
04.10.2015 16:10 12,6 C 17,9 C 75 % 1019,1 hPa 0,0 mm 1,3 km/h (1 Bft) N-NO 22 8,3 C 3,4 km/h (1 Bft)
04.10.2015 16:15 13,1 C 18,8 C 74 % 1018,9 hPa 0,0 mm 0,5 km/h (0 Bft) O-NO 67 8,6 C 3,4 km/h (1 Bft)
04.10.2015 16:20 12,9 C 19,3 C 74 % 1018,9 hPa 0,0 mm 1,6 km/h (1 Bft) O-SO 112 8,4 C 3,4 km/h (1 Bft)
04.10.2015 16:25 12,7 C 19,3 C 74 % 1018,9 hPa 0,0 mm 1,8 km/h (1 Bft) O-SO 112 8,2 C 0,0 km/h (0 Bft)
04.10.2015 16:30 12,6 C 20,6 C 72 % 1018,9 hPa 0,0 mm 1,3 km/h (1 Bft) NW 315 7,7 C 0,0 km/h (0 Bft)
04.10.2015 16:35 12,5 C 20,6 C 71 % 1018,6 hPa 0,0 mm 0,8 km/h (0 Bft) S-SO 157 7,4 C 0,0 km/h (0 Bft)
04.10.2015 16:40 12,3 C 19,9 C 71 % 1018,6 hPa 0,0 mm 0,3 km/h (0 Bft) SO 135 7,2 C 0,0 km/h (0 Bft)
04.10.2015 16:45 12,2 C 18,1 C 71 % 1018,6 hPa 0,0 mm 0,3 km/h (0 Bft) O-SO 112 7,1 C 0,0 km/h (0 Bft)
04.10.2015 16:50 12,1 C 16,1 C 71 % 1018,6 hPa 0,0 mm 0,0 km/h (0 Bft) N-NW 337 7,0 C 0,0 km/h (0 Bft)
04.10.2015 16:55 11,9 C 15,5 C 71 % 1018,4 hPa 0,0 mm 0,3 km/h (0 Bft) S-SO 157 6,8 C 0,0 km/h (0 Bft)
04.10.2015 17:00 11,9 C 14,7 C 71 % 1018,4 hPa 0,0 mm 0,0 km/h (0 Bft) W-SW 247 6,8 C 0,0 km/h (0 Bft)
04.10.2015 17:05 11,7 C 14,2 C 71 % 1018,4 hPa 0,0 mm 0,0 km/h (0 Bft) W-SW 247 6,6 C 3,4 km/h (1 Bft)
04.10.2015 17:10 11,7 C 13,6 C 70 % 1018,4 hPa 0,0 mm 1,8 km/h (1 Bft) NW 315 6,4 C 0,0 km/h (0 Bft)
04.10.2015 17:15 11,5 C 13,1 C 70 % 1018,3 hPa 0,0 mm 2,1 km/h (1 Bft) S 180 6,2 C 3,9 km/h (1 Bft)
04.10.2015 17:20 11,2 C 12,6 C 70 % 1018,3 hPa 0,0 mm 0,3 km/h (0 Bft) SW 225 5,9 C 0,0 km/h (0 Bft)
04.10.2015 17:25 11,1 C 12,2 C 71 % 1018,3 hPa 0,0 mm 0,0 km/h (0 Bft) S-SW 202 6,0 C 0,0 km/h (0 Bft)
04.10.2015 17:30 11,1 C 11,7 C 70 % 1018,3 hPa 0,0 mm 0,0 km/h (0 Bft) W 270 5,8 C 0,0 km/h (0 Bft)
04.10.2015 17:35 11,1 C 11,6 C 69 % 1018,1 hPa 0,0 mm 0,0 km/h (0 Bft) SW 225 5,6 C 0,0 km/h (0 Bft)
04.10.2015 17:40 11,0 C 11,3 C 70 % 1018,1 hPa 0,0 mm 0,0 km/h (0 Bft) S 180 5,7 C 0,0 km/h (0 Bft)
04.10.2015 17:45 11,0 C 11,2 C 70 % 1018,1 hPa 0,0 mm 0,3 km/h (0 Bft) S-SO 157 5,7 C 0,0 km/h (0 Bft)
04.10.2015 17:50 11,0 C 11,1 C 70 % 1018,1 hPa 0,0 mm 0,3 km/h (0 Bft) W-SW 247 5,7 C 0,0 km/h (0 Bft)
04.10.2015 17:55 11,0 C 11,0 C 71 % 1018,0 hPa 0,0 mm 0,0 km/h (0 Bft) S 180 5,9 C 0,0 km/h (0 Bft)
04.10.2015 18:00 10,9 C 10,9 C 72 % 1018,0 hPa 0,0 mm 0,0 km/h (0 Bft) S 180 6,1 C 0,0 km/h (0 Bft)
04.10.2015 18:05 10,8 C 10,8 C 72 % 1018,0 hPa 0,0 mm 0,0 km/h (0 Bft) S 180 6,0 C 0,0 km/h (0 Bft)
04.10.2015 18:10 10,7 C 10,7 C 73 % 1018,0 hPa 0,0 mm 0,0 km/h (0 Bft) S 180 6,1 C 0,0 km/h (0 Bft)
04.10.2015 18:15 10,6 C 10,6 C 74 % 1017,8 hPa 0,0 mm 0,0 km/h (0 Bft) S-SO 157 6,2 C 2,6 km/h (1 Bft)
04.10.2015 18:20 10,4 C 10,4 C 75 % 1017,8 hPa 0,0 mm 0,3 km/h (0 Bft) S-SO 157 6,2 C 3,4 km/h (1 Bft)
04.10.2015 18:25 10,2 C 10,4 C 75 % 1017,8 hPa 0,0 mm 1,0 km/h (0 Bft) S 180 6,0 C 2,8 km/h (1 Bft)
04.10.2015 18:30 9,7 C 10,1 C 76 % 1017,8 hPa 0,0 mm 1,3 km/h (1 Bft) SO 135 5,7 C 0,0 km/h (0 Bft)
04.10.2015 18:35 9,5 C 9,6 C 77 % 1017,9 hPa 0,0 mm 0,8 km/h (0 Bft) S 180 5,7 C 0,0 km/h (0 Bft)
04.10.2015 18:40 9,5 C 9,4 C 78 % 1017,9 hPa 0,0 mm 0,3 km/h (0 Bft) SO 135 5,9 C 0,0 km/h (0 Bft)
04.10.2015 18:45 9,2 C 9,1 C 77 % 1017,9 hPa 0,0 mm 0,3 km/h (0 Bft) SO 135 5,4 C 2,6 km/h (1 Bft)
04.10.2015 18:50 8,9 C 8,9 C 78 % 1017,9 hPa 0,0 mm 0,0 km/h (0 Bft) S-SO 157 5,3 C 0,0 km/h (0 Bft)
04.10.2015 18:55 8,9 C 8,8 C 78 % 1018,1 hPa 0,0 mm 0,0 km/h (0 Bft) S-SO 157 5,3 C 0,0 km/h (0 Bft)
04.10.2015 19:00 8,6 C 8,5 C 78 % 1018,1 hPa 0,0 mm 0,0 km/h (0 Bft) S-SO 157 5,0 C 0,0 km/h (0 Bft)
04.10.2015 19:05 8,0 C 8,2 C 79 % 1018,1 hPa 0,0 mm 1,3 km/h (1 Bft) S 180 4,6 C 6,5 km/h (2 Bft)
04.10.2015 19:10 8,2 C 8,2 C 80 % 1018,1 hPa 0,0 mm 3,6 km/h (1 Bft) S-SO 157 5,0 C 5,2 km/h (1 Bft)
04.10.2015 19:15 8,0 C 8,0 C 80 % 1017,8 hPa 0,0 mm 3,6 km/h (1 Bft) S-SO 157 4,8 C 0,0 km/h (0 Bft)
04.10.2015 19:20 7,4 C 7,5 C 80 % 1017,8 hPa 0,0 mm 1,3 km/h (1 Bft) N-NO 22 4,2 C 0,0 km/h (0 Bft)
04.10.2015 19:25 7,1 C 7,1 C 80 % 1017,8 hPa 0,0 mm 0,0 km/h (0 Bft) O-NO 67 3,9 C 0,0 km/h (0 Bft)
04.10.2015 19:30 7,0 C 6,8 C 80 % 1017,8 hPa 0,0 mm 0,0 km/h (0 Bft) S-SO 157 3,8 C 0,0 km/h (0 Bft)
04.10.2015 19:35 7,0 C 6,6 C 82 % 1017,9 hPa 0,0 mm 0,0 km/h (0 Bft) S-SO 157 4,1 C 0,0 km/h (0 Bft)
04.10.2015 19:40 6,8 C 6,5 C 82 % 1017,9 hPa 0,0 mm 0,0 km/h (0 Bft) S-SO 157 3,9 C 0,0 km/h (0 Bft)
04.10.2015 19:45 6,8 C 6,5 C 82 % 1017,9 hPa 0,0 mm 0,0 km/h (0 Bft) S-SO 157 3,9 C 0,0 km/h (0 Bft)
04.10.2015 19:50 6,4 C 6,1 C 82 % 1017,9 hPa 0,0 mm 0,0 km/h (0 Bft) S-SO 157 3,6 C 0,0 km/h (0 Bft)
04.10.2015 19:55 6,0 C 5,8 C 82 % 1017,9 hPa 0,0 mm 0,0 km/h (0 Bft) W-SW 247 3,2 C 0,0 km/h (0 Bft)
04.10.2015 20:00 5,9 C 5,7 C 83 % 1017,9 hPa 0,0 mm 0,0 km/h (0 Bft) W-SW 247 3,2 C 0,0 km/h (0 Bft)
04.10.2015 20:05 5,9 C 5,6 C 83 % 1017,9 hPa 0,0 mm 0,0 km/h (0 Bft) W-SW 247 3,2 C 0,0 km/h (0 Bft)
04.10.2015 20:10 5,9 C 5,5 C 84 % 1017,9 hPa 0,0 mm 0,0 km/h (0 Bft) SO 135 3,4 C 0,0 km/h (0 Bft)
04.10.2015 20:15 5,9 C 5,6 C 84 % 1017,9 hPa 0,0 mm 0,0 km/h (0 Bft) SO 135 3,4 C 0,0 km/h (0 Bft)
04.10.2015 20:20 5,6 C 5,3 C 84 % 1017,9 hPa 0,0 mm 0,0 km/h (0 Bft) W-SW 247 3,1 C 0,0 km/h (0 Bft)
04.10.2015 20:22 5,4 C 5,2 C 84 % 1017,9 hPa 0,0 mm 0,0 km/h (0 Bft) S 180 2,9 C 0,0 km/h (0 Bft)
04.10.2015 20:25 5,4 C 5,2 C 84 % 1017,9 hPa 0,0 mm 0,0 km/h (0 Bft) S 180 2,9 C 0,0 km/h (0 Bft)
04.10.2015 20:30 5,3 C 5,1 C 85 % 1017,9 hPa 0,0 mm 0,0 km/h (0 Bft) O-NO 67 3,0 C 0,0 km/h (0 Bft)
04.10.2015 20:35 5,4 C 5,2 C 85 % 1017,8 hPa 0,0 mm 0,0 km/h (0 Bft) O-NO 67 3,1 C 0,0 km/h (0 Bft)
04.10.2015 20:40 5,3 C 5,1 C 85 % 1017,8 hPa 0,0 mm 0,0 km/h (0 Bft) NW 315 3,0 C 0,0 km/h (0 Bft)
04.10.2015 20:45 5,3 C 5,0 C 85 % 1017,8 hPa 0,0 mm 0,0 km/h (0 Bft) NW 315 3,0 C 0,0 km/h (0 Bft)
04.10.2015 20:50 5,2 C 4,9 C 85 % 1017,8 hPa 0,0 mm 0,0 km/h (0 Bft) W-NW 292 2,9 C 0,0 km/h (0 Bft)
04.10.2015 20:55 5,1 C 4,9 C 86 % 1017,6 hPa 0,0 mm 0,0 km/h (0 Bft) W-NW 292 3,0 C 0,0 km/h (0 Bft)
04.10.2015 21:00 5,0 C 4,8 C 86 % 1017,6 hPa 0,0 mm 0,0 km/h (0 Bft) W 270 2,9 C 0,0 km/h (0 Bft)
04.10.2015 21:05 5,1 C 4,8 C 86 % 1017,6 hPa 0,0 mm 0,0 km/h (0 Bft) O-NO 67 3,0 C 0,0 km/h (0 Bft)
04.10.2015 21:10 4,9 C 4,7 C 86 % 1017,6 hPa 0,0 mm 0,0 km/h (0 Bft) O-NO 67 2,8 C 0,0 km/h (0 Bft)
04.10.2015 21:15 4,8 C 4,6 C 86 % 1017,4 hPa 0,0 mm 0,0 km/h (0 Bft) N-NW 337 2,7 C 0,0 km/h (0 Bft)
04.10.2015 21:20 4,7 C 4,5 C 86 % 1017,4 hPa 0,0 mm 0,0 km/h (0 Bft) N-NW 337 2,6 C 0,0 km/h (0 Bft)
04.10.2015 21:25 4,5 C 4,4 C 86 % 1017,4 hPa 0,0 mm 0,0 km/h (0 Bft) N-NW 337 2,4 C 0,0 km/h (0 Bft)
04.10.2015 21:30 4,3 C 4,3 C 86 % 1017,4 hPa 0,0 mm 0,0 km/h (0 Bft) N-NW 337 2,2 C 0,0 km/h (0 Bft)
04.10.2015 21:35 4,2 C 4,2 C 86 % 1017,4 hPa 0,0 mm 0,0 km/h (0 Bft) N-NW 337 2,1 C 0,0 km/h (0 Bft)
04.10.2015 21:40 4,4 C 4,3 C 87 % 1017,4 hPa 0,0 mm 0,0 km/h (0 Bft) W 270 2,4 C 0,0 km/h (0 Bft)
04.10.2015 21:45 4,4 C 4,3 C 87 % 1017,4 hPa 0,0 mm 0,0 km/h (0 Bft) W 270 2,4 C 0,0 km/h (0 Bft)
04.10.2015 21:50 4,5 C 4,3 C 87 % 1017,4 hPa 0,0 mm 0,0 km/h (0 Bft) NW 315 2,5 C 0,0 km/h (0 Bft)
04.10.2015 21:55 4,3 C 4,1 C 87 % 1017,5 hPa 0,0 mm 0,0 km/h (0 Bft) W 270 2,3 C 0,0 km/h (0 Bft)
04.10.2015 22:00 4,2 C 4,0 C 87 % 1017,5 hPa 0,0 mm 0,0 km/h (0 Bft) NW 315 2,2 C 0,0 km/h (0 Bft)
04.10.2015 22:05 4,2 C 4,0 C 88 % 1017,5 hPa 0,0 mm 0,0 km/h (0 Bft) NW 315 2,4 C 0,0 km/h (0 Bft)
04.10.2015 22:10 4,1 C 3,9 C 88 % 1017,5 hPa 0,0 mm 0,0 km/h (0 Bft) NW 315 2,3 C 0,0 km/h (0 Bft)
04.10.2015 22:15 4,0 C 3,8 C 88 % 1017,4 hPa 0,0 mm 0,0 km/h (0 Bft) W 270 2,2 C 0,0 km/h (0 Bft)
04.10.2015 22:20 4,0 C 3,8 C 88 % 1017,4 hPa 0,0 mm 0,0 km/h (0 Bft) W 270 2,2 C 0,0 km/h (0 Bft)
04.10.2015 22:25 4,0 C 3,7 C 88 % 1017,4 hPa 0,0 mm 0,0 km/h (0 Bft) W 270 2,2 C 0,0 km/h (0 Bft)
04.10.2015 22:30 3,9 C 3,6 C 88 % 1017,4 hPa 0,0 mm 0,0 km/h (0 Bft) W 270 2,1 C 0,0 km/h (0 Bft)
04.10.2015 22:35 3,7 C 3,5 C 88 % 1017,6 hPa 0,0 mm 0,0 km/h (0 Bft) W 270 1,9 C 0,0 km/h (0 Bft)
04.10.2015 22:40 3,5 C 3,3 C 88 % 1017,6 hPa 0,0 mm 0,0 km/h (0 Bft) W 270 1,7 C 0,0 km/h (0 Bft)
04.10.2015 22:45 3,8 C 3,5 C 88 % 1017,6 hPa 0,0 mm 0,0 km/h (0 Bft) N-NO 22 2,0 C 0,0 km/h (0 Bft)
04.10.2015 22:50 3,6 C 3,4 C 88 % 1017,6 hPa 0,0 mm 0,0 km/h (0 Bft) N-NO 22 1,8 C 0,0 km/h (0 Bft)
04.10.2015 22:55 3,8 C 3,5 C 89 % 1017,5 hPa 0,0 mm 0,0 km/h (0 Bft) N-NO 22 2,2 C 0,0 km/h (0 Bft)
04.10.2015 23:00 3,5 C 3,3 C 89 % 1017,5 hPa 0,0 mm 0,0 km/h (0 Bft) N-NO 22 1,9 C 0,0 km/h (0 Bft)
04.10.2015 23:05 3,6 C 3,3 C 89 % 1017,5 hPa 0,0 mm 0,0 km/h (0 Bft) N-NO 22 2,0 C 0,0 km/h (0 Bft)
04.10.2015 23:10 3,4 C 3,2 C 89 % 1017,5 hPa 0,0 mm 0,0 km/h (0 Bft) N-NW 337 1,8 C 0,0 km/h (0 Bft)
04.10.2015 23:15 3,3 C 3,0 C 89 % 1017,3 hPa 0,0 mm 0,0 km/h (0 Bft) N-NW 337 1,7 C 0,0 km/h (0 Bft)
04.10.2015 23:20 3,2 C 3,0 C 89 % 1017,3 hPa 0,0 mm 0,0 km/h (0 Bft) N-NW 337 1,6 C 0,0 km/h (0 Bft)
04.10.2015 23:25 3,3 C 3,0 C 89 % 1017,3 hPa 0,0 mm 0,0 km/h (0 Bft) W 270 1,7 C 0,0 km/h (0 Bft)
04.10.2015 23:30 3,7 C 3,3 C 89 % 1017,3 hPa 0,0 mm 0,0 km/h (0 Bft) W-SW 247 2,1 C 0,0 km/h (0 Bft)
04.10.2015 23:35 3,6 C 3,3 C 89 % 1017,2 hPa 0,0 mm 0,0 km/h (0 Bft) W-NW 292 2,0 C 0,0 km/h (0 Bft)
04.10.2015 23:40 3,4 C 3,2 C 89 % 1017,2 hPa 0,0 mm 0,0 km/h (0 Bft) W 270 1,8 C 0,0 km/h (0 Bft)
04.10.2015 23:45 3,2 C 3,0 C 89 % 1017,2 hPa 0,0 mm 0,0 km/h (0 Bft) NW 315 1,6 C 0,0 km/h (0 Bft)
04.10.2015 23:50 2,9 C 2,7 C 89 % 1017,2 hPa 0,0 mm 0,0 km/h (0 Bft) N-NW 337 1,3 C 0,0 km/h (0 Bft)
04.10.2015 23:55 3,0 C 2,7 C 89 % 1017,0 hPa 0,0 mm 0,0 km/h (0 Bft) W 270 1,4 C 0,0 km/h (0 Bft)
_ Min-Zeit 23:50 23:55 17:35 04:30 - 23:55 - - 23:50 23:55
Minimum _ 2,9 C 2,7 C 69 % 1014,7 hPa - 0,0 km/h (0 Bft) - - 1,3 C 0,0 km/h (0 Bft)
_ Max-Zeit 15:35 16:35 01:50 13:50 13:35 10:05 - - 15:30 11:50
Maximum _ 14,5 C 20,6 C 90 % 1020,2 hPa 0,7 mm 15,3 km/h
W-NW (3 Bft)
- - 9,5 C 40,9 km/h
NW (6 Bft)
Durchschnitt _ 8,9 C 9,3 C 81 % 1017,4 hPa #3,4 mm 2,8 km/h (1 Bft) SW - 5,7 C 4,6 km/h (1 Bft)